createdAt,value
2022-10-23T00:00:17.574Z,10.6
2022-10-23T00:01:24.609Z,10.6
2022-10-23T00:02:31.804Z,10.6
2022-10-23T00:03:38.823Z,10.6
2022-10-23T00:04:45.972Z,10.6
2022-10-23T00:05:52.540Z,10.6
2022-10-23T00:06:59.615Z,10.6
2022-10-23T00:08:06.789Z,10.6
2022-10-23T00:09:13.891Z,10.6
2022-10-23T00:10:21.085Z,10.6
2022-10-23T00:11:27.584Z,10.6
2022-10-23T00:12:36.763Z,10.6
2022-10-23T00:13:41.739Z,10.6
2022-10-23T00:15:55.940Z,10.6
2022-10-23T00:17:02.539Z,10.6
2022-10-23T00:18:09.634Z,10.6
2022-10-23T00:19:16.830Z,10.6
2022-10-23T00:20:24.408Z,10.6
2022-10-23T00:21:30.919Z,10.7
2022-10-23T00:23:44.652Z,10.6
2022-10-23T00:24:51.757Z,10.6
2022-10-23T00:25:58.916Z,10.6
2022-10-23T00:27:05.507Z,10.6
2022-10-23T00:28:12.539Z,10.6
2022-10-23T00:29:19.724Z,10.6
2022-10-23T00:30:26.745Z,10.6
2022-10-23T00:31:33.908Z,10.6
2022-10-23T00:32:40.414Z,10.6
2022-10-23T00:33:47.589Z,10.6
2022-10-23T00:34:54.722Z,10.6
2022-10-23T00:36:01.775Z,10.6
2022-10-23T00:37:08.908Z,10.6
2022-10-23T00:38:15.506Z,10.6
2022-10-23T00:39:22.527Z,10.6
2022-10-23T00:40:29.758Z,10.6
2022-10-23T00:41:36.850Z,10.6
2022-10-23T00:42:44.248Z,10.6
2022-10-23T00:43:50.492Z,10.6
2022-10-23T00:44:57.626Z,10.6
2022-10-23T00:46:04.687Z,10.6
2022-10-23T00:47:11.768Z,10.6
2022-10-23T00:48:18.410Z,10.6
2022-10-23T00:49:25.521Z,10.6
2022-10-23T00:50:32.585Z,10.6
2022-10-23T00:51:39.714Z,10.6
2022-10-23T00:52:46.821Z,10.7
2022-10-23T00:54:01.153Z,10.7
2022-10-23T00:55:00.526Z,10.7
2022-10-23T00:56:07.628Z,10.7
2022-10-23T00:57:14.686Z,10.6
2022-10-23T00:58:21.818Z,10.6
2022-10-23T00:59:28.988Z,10.6
2022-10-23T01:00:35.519Z,10.6
2022-10-23T01:01:42.708Z,10.6
2022-10-23T01:02:49.739Z,10.6
2022-10-23T01:05:03.912Z,10.6
2022-10-23T01:06:10.454Z,10.7
2022-10-23T01:07:17.669Z,10.7
2022-10-23T01:08:24.708Z,10.7
2022-10-23T01:09:31.820Z,10.7
2022-10-23T01:10:39.001Z,10.7
2022-10-23T01:11:45.492Z,10.7
2022-10-23T01:12:52.607Z,10.7
2022-10-23T01:13:59.789Z,10.7
2022-10-23T01:15:06.875Z,10.7
2022-10-23T01:17:20.482Z,10.8
2022-10-23T01:19:34.714Z,10.8
2022-10-23T01:20:41.831Z,10.8
2022-10-23T01:21:48.949Z,10.7
2022-10-23T01:22:55.548Z,10.8
2022-10-23T01:24:02.648Z,10.8
2022-10-23T01:25:09.768Z,10.8
2022-10-23T01:26:16.895Z,10.8
2022-10-23T01:27:23.964Z,10.8
2022-10-23T01:28:30.550Z,10.8
2022-10-23T01:29:37.627Z,10.8
2022-10-23T01:30:44.828Z,10.7
2022-10-23T01:31:51.829Z,10.8
2022-10-23T01:32:58.968Z,10.7
2022-10-23T01:34:05.559Z,10.7
2022-10-23T01:35:12.620Z,10.7
2022-10-23T01:36:19.798Z,10.7
2022-10-23T01:37:26.876Z,10.7
2022-10-23T01:38:33.420Z,10.7
2022-10-23T01:39:40.549Z,10.7
2022-10-23T01:40:47.727Z,10.7
2022-10-23T01:41:54.777Z,10.7
2022-10-23T01:43:01.823Z,10.7
2022-10-23T01:46:22.748Z,10.7
2022-10-23T01:47:29.806Z,10.7
2022-10-23T01:48:36.938Z,10.6
2022-10-23T01:49:43.420Z,10.6
2022-10-23T01:51:57.709Z,10.6
2022-10-23T01:53:04.799Z,10.6
2022-10-23T01:54:11.879Z,10.6
2022-10-23T01:55:18.491Z,10.6
2022-10-23T01:56:25.670Z,10.6
2022-10-23T01:57:32.647Z,10.6
2022-10-23T01:58:39.777Z,10.6
2022-10-23T01:59:46.875Z,10.6
2022-10-23T02:00:53.431Z,10.5
2022-10-23T02:02:00.715Z,10.5
2022-10-23T02:03:07.675Z,10.5
2022-10-23T02:04:14.837Z,10.5
2022-10-23T02:05:21.917Z,10.5
2022-10-23T02:06:28.472Z,10.5
2022-10-23T02:07:35.588Z,10.5
2022-10-23T02:08:42.710Z,10.5
2022-10-23T02:09:49.782Z,10.5
2022-10-23T02:10:57.006Z,10.5
2022-10-23T02:13:10.589Z,10.4
2022-10-23T02:14:17.729Z,10.4
2022-10-23T02:15:24.787Z,10.4
2022-10-23T02:16:31.868Z,10.4
2022-10-23T02:17:38.528Z,10.4
2022-10-23T02:18:45.666Z,10.4
2022-10-23T02:19:52.739Z,10.4
2022-10-23T02:20:59.807Z,10.4
2022-10-23T02:23:13.668Z,10.3
2022-10-23T02:24:20.618Z,10.3
2022-10-23T02:25:27.765Z,10.3
2022-10-23T02:27:41.964Z,10.2
2022-10-23T02:28:48.548Z,10.2
2022-10-23T02:29:55.646Z,10.2
2022-10-23T02:31:02.757Z,10.2
2022-10-23T02:32:09.821Z,10.2
2022-10-23T02:33:16.935Z,10.2
2022-10-23T02:34:23.528Z,10.2
2022-10-23T02:35:30.593Z,10.2
2022-10-23T02:36:37.757Z,10.2
2022-10-23T02:37:45.199Z,10.2
2022-10-23T02:38:51.961Z,10.2
2022-10-23T02:39:58.571Z,10.2
2022-10-23T02:41:05.719Z,10.2
2022-10-23T02:42:12.718Z,10.2
2022-10-23T02:43:19.868Z,10.2
2022-10-23T02:44:26.452Z,10.2
2022-10-23T02:45:33.545Z,10.2
2022-10-23T02:46:41.180Z,10.2
2022-10-23T02:47:47.717Z,10.2
2022-10-23T02:48:54.833Z,10.2
2022-10-23T02:50:01.507Z,10.2
2022-10-23T02:51:08.548Z,10.2
2022-10-23T02:52:15.688Z,10.2
2022-10-23T02:53:22.787Z,10.2
2022-10-23T02:54:29.899Z,10.2
2022-10-23T02:55:36.458Z,10.2
2022-10-23T02:56:43.590Z,10.2
2022-10-23T02:57:50.647Z,10.1
2022-10-23T02:58:57.713Z,10.2
2022-10-23T03:00:04.851Z,10.2
2022-10-23T03:01:11.666Z,10.2
2022-10-23T03:02:18.757Z,10.2
2022-10-23T03:03:25.708Z,10.2
2022-10-23T03:04:32.758Z,10.2
2022-10-23T03:05:39.909Z,10.2
2022-10-23T03:06:46.516Z,10.2
2022-10-23T03:09:00.635Z,10.2
2022-10-23T03:10:07.767Z,10.2
2022-10-23T03:11:14.899Z,10.2
2022-10-23T03:12:21.426Z,10.2
2022-10-23T03:13:28.629Z,10.2
2022-10-23T03:14:36.198Z,10.2
2022-10-23T03:15:42.787Z,10.2
2022-10-23T03:16:49.899Z,10.2
2022-10-23T03:17:56.527Z,10.2
2022-10-23T03:19:03.607Z,10.2
2022-10-23T03:20:10.648Z,10.2
2022-10-23T03:21:17.790Z,10.2
2022-10-23T03:22:24.920Z,10.2
2022-10-23T03:23:31.500Z,10.2
2022-10-23T03:24:38.569Z,10.2
2022-10-23T03:26:52.760Z,10.2
2022-10-23T03:27:59.930Z,10.2
2022-10-23T03:29:06.507Z,10.2
2022-10-23T03:30:13.601Z,10.2
2022-10-23T03:31:20.673Z,10.2
2022-10-23T03:32:27.815Z,10.2
2022-10-23T03:33:34.905Z,10.2
2022-10-23T03:34:41.492Z,10.2
2022-10-23T03:36:55.759Z,10.2
2022-10-23T03:38:02.841Z,10.2
2022-10-23T03:39:09.919Z,10.2
2022-10-23T03:40:16.530Z,10.2
2022-10-23T03:41:23.559Z,10.2
2022-10-23T03:43:37.892Z,10.2
2022-10-23T03:44:44.954Z,10.2
2022-10-23T03:45:51.472Z,10.1
2022-10-23T03:46:58.667Z,10.2
2022-10-23T03:48:05.738Z,10.1
2022-10-23T03:50:19.971Z,10.2
2022-10-23T03:51:26.618Z,10.2
2022-10-23T03:52:36.659Z,10.2
2022-10-23T03:53:40.732Z,10.2
2022-10-23T03:54:47.859Z,10.2
2022-10-23T03:55:54.936Z,10.2
2022-10-23T03:57:01.558Z,10.2
2022-10-23T03:58:08.642Z,10.2
2022-10-23T03:59:15.770Z,10.2
2022-10-23T04:00:22.843Z,10.2
2022-10-23T04:01:29.537Z,10.2
2022-10-23T04:02:36.864Z,10.2
2022-10-23T04:03:43.596Z,10.2
2022-10-23T04:04:50.756Z,10.3
2022-10-23T04:05:57.926Z,10.2
2022-10-23T04:07:04.447Z,10.2
2022-10-23T04:08:13.368Z,10.2
2022-10-23T04:09:18.634Z,10.2
2022-10-23T04:11:32.861Z,10.3
2022-10-23T04:12:39.773Z,10.3
2022-10-23T04:13:46.535Z,10.3
2022-10-23T04:14:53.625Z,10.3
2022-10-23T04:16:00.762Z,10.3
2022-10-23T04:17:07.849Z,10.3
2022-10-23T04:18:14.482Z,10.3
2022-10-23T04:19:21.523Z,10.3
2022-10-23T04:20:28.621Z,10.3
2022-10-23T04:21:35.789Z,10.3
2022-10-23T04:22:43.064Z,10.3
2022-10-23T04:23:49.447Z,10.3
2022-10-23T04:24:56.563Z,10.3
2022-10-23T04:26:03.660Z,10.3
2022-10-23T04:27:10.779Z,10.3
2022-10-23T04:28:17.928Z,10.3
2022-10-23T04:31:38.772Z,10.2
2022-10-23T04:32:45.782Z,10.2
2022-10-23T04:33:52.931Z,10.2
2022-10-23T04:34:59.449Z,10.2
2022-10-23T04:36:06.608Z,10.2
2022-10-23T04:37:13.671Z,10.2
2022-10-23T04:38:20.747Z,10.2
2022-10-23T04:39:27.961Z,10.2
2022-10-23T04:40:34.513Z,10.2
2022-10-23T04:41:41.619Z,10.2
2022-10-23T04:42:48.856Z,10.2
2022-10-23T04:43:55.783Z,10.2
2022-10-23T04:45:02.335Z,10.2
2022-10-23T04:46:09.485Z,10.2
2022-10-23T04:48:25.655Z,10.2
2022-10-23T04:49:30.788Z,10.2
2022-10-23T04:50:38.024Z,10.2
2022-10-23T04:51:44.508Z,10.2
2022-10-23T04:52:51.553Z,10.2
2022-10-23T04:53:58.740Z,10.2
2022-10-23T04:55:05.807Z,10.2
2022-10-23T04:56:12.977Z,10.2
2022-10-23T04:57:19.456Z,10.2
2022-10-23T04:58:26.600Z,10.2
2022-10-23T04:59:33.679Z,10.2
2022-10-23T05:00:40.875Z,10.2
2022-10-23T05:01:47.479Z,10.2
2022-10-23T05:02:54.546Z,10.3
2022-10-23T05:04:01.582Z,10.2
2022-10-23T05:05:08.705Z,10.2
2022-10-23T05:06:15.898Z,10.2
2022-10-23T05:08:29.478Z,10.2
2022-10-23T05:09:36.618Z,10.2
2022-10-23T05:10:43.726Z,10.2
2022-10-23T05:12:57.508Z,10.3
2022-10-23T05:14:04.508Z,10.3
2022-10-23T05:15:11.647Z,10.3
2022-10-23T05:16:18.765Z,10.3
2022-10-23T05:17:25.890Z,10.3
2022-10-23T05:18:32.440Z,10.3
2022-10-23T05:19:39.550Z,10.3
2022-10-23T05:20:46.669Z,10.3
2022-10-23T05:21:53.736Z,10.3
2022-10-23T05:23:00.847Z,10.3
2022-10-23T05:24:08.001Z,10.3
2022-10-23T05:25:14.530Z,10.3
2022-10-23T05:26:21.688Z,10.3
2022-10-23T05:27:28.855Z,10.3
2022-10-23T05:28:35.879Z,10.3
2022-10-23T05:29:42.440Z,10.4
2022-10-23T05:30:49.532Z,10.4
2022-10-23T05:31:56.688Z,10.4
2022-10-23T05:34:13.343Z,10.3
2022-10-23T05:35:17.474Z,10.3
2022-10-23T05:36:24.638Z,10.3
2022-10-23T05:37:31.655Z,10.3
2022-10-23T05:38:38.761Z,10.3
2022-10-23T05:39:45.868Z,10.3
2022-10-23T05:41:59.587Z,10.3
2022-10-23T05:43:06.657Z,10.3
2022-10-23T05:44:13.769Z,10.3
2022-10-23T05:45:20.873Z,10.3
2022-10-23T05:46:27.540Z,10.3
2022-10-23T05:47:34.618Z,10.3
2022-10-23T05:48:41.637Z,10.3
2022-10-23T05:49:48.817Z,10.3
2022-10-23T05:50:55.882Z,10.3
2022-10-23T05:52:02.459Z,10.3
2022-10-23T05:54:16.667Z,10.3
2022-10-23T05:55:23.795Z,10.3
2022-10-23T05:56:30.903Z,10.3
2022-10-23T05:57:37.542Z,10.3
2022-10-23T05:58:44.708Z,10.3
2022-10-23T05:59:51.693Z,10.3
2022-10-23T06:00:58.940Z,10.3
2022-10-23T06:02:06.062Z,10.3
2022-10-23T06:03:12.487Z,10.3
2022-10-23T06:04:19.579Z,10.3
2022-10-23T06:05:26.749Z,10.3
2022-10-23T06:06:33.837Z,10.3
2022-10-23T06:07:41.085Z,10.3
2022-10-23T06:09:54.653Z,10.4
2022-10-23T06:11:01.717Z,10.4
2022-10-23T06:12:08.850Z,10.4
2022-10-23T06:13:15.427Z,10.4
2022-10-23T06:14:22.498Z,10.4
2022-10-23T06:16:36.730Z,10.4
2022-10-23T06:17:44.218Z,10.4
2022-10-23T06:18:50.364Z,10.4
2022-10-23T06:19:57.538Z,10.4
2022-10-23T06:21:04.602Z,10.4
2022-10-23T06:22:11.808Z,10.4
2022-10-23T06:23:18.859Z,10.4
2022-10-23T06:24:25.449Z,10.4
2022-10-23T06:25:32.468Z,10.4
2022-10-23T06:26:39.601Z,10.4
2022-10-23T06:27:46.749Z,10.4
2022-10-23T06:28:53.818Z,10.4
2022-10-23T06:30:00.457Z,10.5
2022-10-23T06:31:07.583Z,10.5
2022-10-23T06:32:14.624Z,10.5
2022-10-23T06:33:21.739Z,10.5
2022-10-23T06:35:35.429Z,10.5
2022-10-23T06:37:49.665Z,10.5
2022-10-23T06:38:56.838Z,10.5
2022-10-23T06:40:03.816Z,10.5
2022-10-23T06:41:10.395Z,10.5
2022-10-23T06:42:17.537Z,10.5
2022-10-23T06:43:24.688Z,10.5
2022-10-23T06:44:31.768Z,10.5
2022-10-23T06:45:38.844Z,10.5
2022-10-23T06:46:45.460Z,10.5
2022-10-23T06:47:52.560Z,10.5
2022-10-23T06:48:59.649Z,10.5
2022-10-23T06:50:09.460Z,10.5
2022-10-23T06:51:13.868Z,10.5
2022-10-23T06:52:45.361Z,10.5
2022-10-23T06:53:27.543Z,10.5
2022-10-23T06:54:34.708Z,10.5
2022-10-23T06:55:41.728Z,10.5
2022-10-23T06:56:48.990Z,10.5
2022-10-23T06:57:55.488Z,10.5
2022-10-23T06:59:02.560Z,10.5
2022-10-23T07:00:09.651Z,10.5
2022-10-23T07:01:16.921Z,10.6
2022-10-23T07:02:23.837Z,10.5
2022-10-23T07:03:30.468Z,10.5
2022-10-23T07:04:37.559Z,10.5
2022-10-23T07:05:44.699Z,10.5
2022-10-23T07:06:51.891Z,10.5
2022-10-23T07:07:58.900Z,10.5
2022-10-23T07:09:05.491Z,10.5
2022-10-23T07:11:19.729Z,10.5
2022-10-23T07:12:26.828Z,10.5
2022-10-23T07:13:33.371Z,10.5
2022-10-23T07:14:40.479Z,10.5
2022-10-23T07:16:54.719Z,10.5
2022-10-23T07:18:01.819Z,10.5
2022-10-23T07:19:08.427Z,10.5
2022-10-23T07:20:15.588Z,10.5
2022-10-23T07:21:22.638Z,10.6
2022-10-23T07:22:29.722Z,10.5
2022-10-23T07:23:36.859Z,10.5
2022-10-23T07:24:43.354Z,10.5
2022-10-23T07:25:50.506Z,10.6
2022-10-23T07:26:57.620Z,10.5
2022-10-23T07:28:04.722Z,10.5
2022-10-23T07:29:11.768Z,10.5
2022-10-23T07:30:18.401Z,10.5
2022-10-23T07:31:27.993Z,10.5
2022-10-23T07:32:32.613Z,10.5
2022-10-23T07:33:39.757Z,10.5
2022-10-23T07:34:46.836Z,10.4
2022-10-23T07:35:53.444Z,10.4
2022-10-23T07:37:00.518Z,10.4
2022-10-23T07:38:07.658Z,10.4
2022-10-23T07:39:15.227Z,10.4
2022-10-23T07:41:28.529Z,10.4
2022-10-23T07:42:36.785Z,10.3
2022-10-23T07:43:42.643Z,10.3
2022-10-23T07:44:49.713Z,10.3
2022-10-23T07:45:56.874Z,10.3
2022-10-23T07:47:03.480Z,10.3
2022-10-23T07:48:10.544Z,10.3
2022-10-23T07:49:17.680Z,10.3
2022-10-23T07:50:24.981Z,10.2
2022-10-23T07:51:31.878Z,10.3
2022-10-23T07:52:38.418Z,10.2
2022-10-23T07:53:45.527Z,10.3
2022-10-23T07:54:52.591Z,10.3
2022-10-23T07:55:59.747Z,10.3
2022-10-23T07:58:13.418Z,10.3
2022-10-23T07:59:20.551Z,10.3
2022-10-23T08:00:27.875Z,10.2
2022-10-23T08:01:35.007Z,10.3
2022-10-23T08:02:42.160Z,10.3
2022-10-23T08:03:48.434Z,10.3
2022-10-23T08:04:55.588Z,10.3
2022-10-23T08:06:02.615Z,10.3
2022-10-23T08:07:09.755Z,10.3
2022-10-23T08:08:16.877Z,10.3
2022-10-23T08:09:23.409Z,10.2
2022-10-23T08:10:30.546Z,10.2
2022-10-23T08:11:37.671Z,10.2
2022-10-23T08:12:45.196Z,10.2
2022-10-23T08:13:51.832Z,10.2
2022-10-23T08:14:58.502Z,10.2
2022-10-23T08:16:05.627Z,10.2
2022-10-23T08:17:12.718Z,10.2
2022-10-23T08:18:19.824Z,10.2
2022-10-23T08:19:26.365Z,10.2
2022-10-23T08:20:33.973Z,10.3
2022-10-23T08:21:40.533Z,10.2
2022-10-23T08:22:47.667Z,10.2
2022-10-23T08:23:54.768Z,10.2
2022-10-23T08:25:01.358Z,10.2
2022-10-23T08:26:08.474Z,10.2
2022-10-23T08:27:15.647Z,10.2
2022-10-23T08:28:22.641Z,10.2
2022-10-23T08:29:29.749Z,10.2
2022-10-23T08:30:36.406Z,10.2
2022-10-23T08:31:43.590Z,10.2
2022-10-23T08:32:50.552Z,10.2
2022-10-23T08:33:57.685Z,10.2
2022-10-23T08:35:04.809Z,10.2
2022-10-23T08:36:11.340Z,10.3
2022-10-23T08:37:18.473Z,10.3
2022-10-23T08:39:32.703Z,10.3
2022-10-23T08:40:39.808Z,10.3
2022-10-23T08:41:46.418Z,10.3
2022-10-23T08:42:53.467Z,10.3
2022-10-23T08:45:07.715Z,10.3
2022-10-23T08:46:14.839Z,10.3
2022-10-23T08:47:21.439Z,10.3
2022-10-23T08:48:28.542Z,10.3
2022-10-23T08:49:35.650Z,10.3
2022-10-23T08:50:42.744Z,10.3
2022-10-23T08:51:49.839Z,10.3
2022-10-23T08:52:56.466Z,10.3
2022-10-23T08:54:03.503Z,10.4
2022-10-23T08:55:10.608Z,10.4
2022-10-23T08:56:17.378Z,10.4
2022-10-23T08:57:24.871Z,10.4
2022-10-23T08:58:31.370Z,10.4
2022-10-23T08:59:38.518Z,10.4
2022-10-23T09:00:45.694Z,10.4
2022-10-23T09:01:52.939Z,10.4
2022-10-23T09:02:59.866Z,10.4
2022-10-23T09:04:06.451Z,10.4
2022-10-23T09:05:13.488Z,10.5
2022-10-23T09:06:20.582Z,10.5
2022-10-23T09:07:27.755Z,10.5
2022-10-23T09:08:34.867Z,10.5
2022-10-23T09:09:41.417Z,10.5
2022-10-23T09:10:50.706Z,10.5
2022-10-23T09:11:55.688Z,10.5
2022-10-23T09:13:02.734Z,10.5
2022-10-23T09:14:09.881Z,10.5
2022-10-23T09:15:16.461Z,10.5
2022-10-23T09:16:23.598Z,10.5
2022-10-23T09:17:30.711Z,10.5
2022-10-23T09:18:37.739Z,10.5
2022-10-23T09:20:51.419Z,10.5
2022-10-23T09:21:58.576Z,10.6
2022-10-23T09:23:05.679Z,10.6
2022-10-23T09:24:12.769Z,10.6
2022-10-23T09:25:19.353Z,10.6
2022-10-23T09:26:26.468Z,10.7
2022-10-23T09:27:33.558Z,10.8
2022-10-23T09:28:40.685Z,10.9
2022-10-23T09:29:47.911Z,10.9
2022-10-23T09:30:54.369Z,11
2022-10-23T09:32:01.467Z,11.1
2022-10-23T09:33:08.578Z,11.1
2022-10-23T09:34:15.700Z,11.2
2022-10-23T09:35:22.742Z,11.2
2022-10-23T09:36:29.520Z,11.3
2022-10-23T09:37:36.501Z,11.3
2022-10-23T09:38:43.521Z,11.4
2022-10-23T09:39:50.638Z,11.4
2022-10-23T09:40:57.899Z,11.4
2022-10-23T09:42:04.477Z,11.4
2022-10-23T09:43:11.435Z,11.5
2022-10-23T09:44:18.529Z,11.5
2022-10-23T09:45:25.660Z,11.5
2022-10-23T09:46:32.798Z,11.5
2022-10-23T09:49:53.628Z,11.6
2022-10-23T09:51:00.718Z,11.6
2022-10-23T09:52:07.837Z,11.7
2022-10-23T09:53:14.374Z,11.8
2022-10-23T09:54:21.488Z,11.8
2022-10-23T09:55:28.596Z,11.8
2022-10-23T09:56:35.722Z,11.8
2022-10-23T09:57:43.319Z,11.9
2022-10-23T09:58:49.391Z,11.9
2022-10-23T09:59:56.537Z,11.9
2022-10-23T10:01:03.710Z,11.9
2022-10-23T10:02:10.816Z,12
2022-10-23T10:03:17.851Z,12
2022-10-23T10:04:24.395Z,12.1
2022-10-23T10:05:31.506Z,12.1
2022-10-23T10:06:38.631Z,12.1
2022-10-23T10:07:45.913Z,12.1
2022-10-23T10:08:52.831Z,12.1
2022-10-23T10:09:59.418Z,12.1
2022-10-23T10:11:06.501Z,12.1
2022-10-23T10:12:13.685Z,12.2
2022-10-23T10:13:20.758Z,12.2
2022-10-23T10:14:27.858Z,12.2
2022-10-23T10:15:34.407Z,12.2
2022-10-23T10:16:41.512Z,12.2
2022-10-23T10:17:48.699Z,12.3
2022-10-23T10:18:55.254Z,12.3
2022-10-23T10:20:05.464Z,12.3
2022-10-23T10:21:09.373Z,12.3
2022-10-23T10:22:16.563Z,12.3
2022-10-23T10:23:23.629Z,12.4
2022-10-23T10:24:30.768Z,12.4
2022-10-23T10:25:37.845Z,12.3
2022-10-23T10:26:44.462Z,12.3
2022-10-23T10:27:51.539Z,12.4
2022-10-23T10:28:58.744Z,12.3
2022-10-23T10:30:05.734Z,12.3
2022-10-23T10:31:12.868Z,12.2
2022-10-23T10:32:19.446Z,12.2
2022-10-23T10:33:26.569Z,12.1
2022-10-23T10:34:33.605Z,12
2022-10-23T10:35:40.759Z,12
2022-10-23T10:36:47.965Z,11.9
2022-10-23T10:37:54.695Z,11.9
2022-10-23T10:39:01.505Z,11.9
2022-10-23T10:40:08.640Z,11.9
2022-10-23T10:41:15.761Z,11.9
2022-10-23T10:42:22.308Z,11.9
2022-10-23T10:43:29.475Z,11.9
2022-10-23T10:44:36.578Z,11.9
2022-10-23T10:45:43.651Z,11.8
2022-10-23T10:46:50.764Z,11.7
2022-10-23T10:47:57.417Z,11.7
2022-10-23T10:49:04.451Z,11.7
2022-10-23T10:50:11.576Z,11.7
2022-10-23T10:52:25.808Z,11.6
2022-10-23T10:53:32.321Z,11.6
2022-10-23T10:54:39.540Z,11.6
2022-10-23T10:55:46.551Z,11.7
2022-10-23T10:56:53.625Z,11.7
2022-10-23T10:58:00.731Z,11.8
2022-10-23T10:59:07.366Z,11.9
2022-10-23T11:00:14.556Z,11.9
2022-10-23T11:01:22.214Z,11.9
2022-10-23T11:02:28.761Z,12
2022-10-23T11:03:39.027Z,12
2022-10-23T11:04:42.345Z,12.1
2022-10-23T11:05:49.657Z,12.1
2022-10-23T11:08:03.649Z,12.2
2022-10-23T11:09:20.398Z,12.2
2022-10-23T11:10:17.430Z,12.2
2022-10-23T11:11:24.453Z,12.2
2022-10-23T11:12:31.630Z,12.2
2022-10-23T11:13:38.801Z,12.2
2022-10-23T11:14:45.782Z,12.3
2022-10-23T11:18:06.631Z,12.4
2022-10-23T11:19:14.258Z,12.4
2022-10-23T11:20:20.812Z,12.4
2022-10-23T11:21:27.389Z,12.4
2022-10-23T11:22:36.927Z,12.3
2022-10-23T11:23:41.609Z,12.3
2022-10-23T11:24:50.065Z,12.3
2022-10-23T11:25:55.864Z,12.3
2022-10-23T11:27:02.513Z,12.3
2022-10-23T11:28:10.818Z,12.3
2022-10-23T11:29:16.660Z,12.2
2022-10-23T11:30:23.735Z,12.2
2022-10-23T11:31:30.836Z,12.2
2022-10-23T11:32:37.510Z,12.2
2022-10-23T11:33:44.818Z,12.2
2022-10-23T11:35:58.779Z,12.1
2022-10-23T11:37:05.347Z,12.1
2022-10-23T11:38:12.382Z,12.1
2022-10-23T11:39:19.516Z,12.1
2022-10-23T11:40:26.658Z,12.1
2022-10-23T11:41:33.219Z,12.1
2022-10-23T11:42:40.878Z,12.1
2022-10-23T11:43:47.432Z,12.2
2022-10-23T11:44:54.636Z,12.2
2022-10-23T11:46:01.658Z,12.2
2022-10-23T11:47:08.894Z,12.2
2022-10-23T11:48:15.322Z,12.2
2022-10-23T11:49:22.469Z,12.2
2022-10-23T11:50:29.527Z,12.2
2022-10-23T11:51:36.638Z,12.2
2022-10-23T11:52:50.797Z,12.2
2022-10-23T11:53:50.375Z,12.2
2022-10-23T11:56:04.587Z,12.2
2022-10-23T11:57:11.707Z,12.2
2022-10-23T11:58:18.828Z,12.2
2022-10-23T11:59:25.433Z,12.2
2022-10-23T12:00:32.483Z,12.2
2022-10-23T12:01:39.694Z,12.3
2022-10-23T12:03:53.788Z,12.3
2022-10-23T12:05:00.311Z,12.3
2022-10-23T12:06:07.451Z,12.3
2022-10-23T12:07:14.567Z,12.4
2022-10-23T12:08:21.720Z,12.4
2022-10-23T12:09:28.780Z,12.4
2022-10-23T12:10:35.406Z,12.4
2022-10-23T12:12:49.680Z,12.5
2022-10-23T12:13:56.741Z,12.5
2022-10-23T12:15:03.743Z,12.6
2022-10-23T12:16:10.393Z,12.6
2022-10-23T12:17:17.465Z,12.6
2022-10-23T12:18:24.582Z,12.6
2022-10-23T12:19:31.764Z,12.7
2022-10-23T12:20:38.317Z,12.7
2022-10-23T12:21:45.441Z,12.7
2022-10-23T12:23:59.640Z,12.7
2022-10-23T12:25:06.729Z,12.7
2022-10-23T12:26:13.272Z,12.7
2022-10-23T12:27:20.428Z,12.7
2022-10-23T12:28:27.539Z,12.8
2022-10-23T12:29:34.620Z,12.8
2022-10-23T12:31:48.388Z,12.9
2022-10-23T12:32:55.344Z,12.9
2022-10-23T12:34:02.459Z,12.9
2022-10-23T12:35:09.651Z,13
2022-10-23T12:36:16.788Z,13
2022-10-23T12:37:23.363Z,13
2022-10-23T12:38:33.960Z,13
2022-10-23T12:39:37.467Z,13
2022-10-23T12:40:44.650Z,13.1
2022-10-23T12:41:51.773Z,13.1
2022-10-23T12:42:58.388Z,13.1
2022-10-23T12:44:05.407Z,13.2
2022-10-23T12:46:19.703Z,13.2
2022-10-23T12:47:26.842Z,13.2
2022-10-23T12:48:33.373Z,13.3
2022-10-23T12:49:40.377Z,13.3
2022-10-23T12:50:47.517Z,13.3
2022-10-23T12:51:54.672Z,13.3
2022-10-23T12:53:01.830Z,13.3
2022-10-23T12:54:08.314Z,13.4
2022-10-23T12:55:15.425Z,13.4
2022-10-23T12:56:22.544Z,13.4
2022-10-23T12:57:29.765Z,13.4
2022-10-23T12:59:43.284Z,13.5
2022-10-23T13:00:50.491Z,13.5
2022-10-23T13:01:57.701Z,13.5
2022-10-23T13:03:04.641Z,13.5
2022-10-23T13:05:18.407Z,13.5
2022-10-23T13:06:25.517Z,13.5
2022-10-23T13:07:32.549Z,13.5
2022-10-23T13:08:39.651Z,13.5
2022-10-23T13:09:46.738Z,13.5
2022-10-23T13:10:53.347Z,13.5
2022-10-23T13:12:00.411Z,13.5
2022-10-23T13:13:07.570Z,13.5
2022-10-23T13:14:14.753Z,13.5
2022-10-23T13:15:21.723Z,13.5
2022-10-23T13:16:28.387Z,13.5
2022-10-23T13:17:35.448Z,13.5
2022-10-23T13:18:42.560Z,13.5
2022-10-23T13:19:49.740Z,13.6
2022-10-23T13:20:56.844Z,13.6
2022-10-23T13:22:03.408Z,13.6
2022-10-23T13:23:10.433Z,13.6
2022-10-23T13:24:17.559Z,13.6
2022-10-23T13:25:24.711Z,13.6
2022-10-23T13:26:31.819Z,13.7
2022-10-23T13:27:38.395Z,13.7
2022-10-23T13:28:45.457Z,13.7
2022-10-23T13:29:52.633Z,13.7
2022-10-23T13:30:59.753Z,13.7
2022-10-23T13:32:06.256Z,13.7
2022-10-23T13:33:13.372Z,13.7
2022-10-23T13:34:20.542Z,13.6
2022-10-23T13:35:27.630Z,13.7
2022-10-23T13:36:34.802Z,13.7
2022-10-23T13:37:41.296Z,13.7
2022-10-23T13:38:48.518Z,13.7
2022-10-23T13:39:55.550Z,13.7
2022-10-23T13:41:02.659Z,13.7
2022-10-23T13:42:09.768Z,13.7
2022-10-23T13:43:16.311Z,13.7
2022-10-23T13:44:23.393Z,13.7
2022-10-23T13:46:37.591Z,13.7
2022-10-23T13:47:45.291Z,13.6
2022-10-23T13:48:51.241Z,13.7
2022-10-23T13:49:58.455Z,13.6
2022-10-23T13:51:05.577Z,13.6
2022-10-23T13:52:12.835Z,13.7
2022-10-23T13:53:19.827Z,13.7
2022-10-23T13:55:33.459Z,13.7
2022-10-23T13:56:40.482Z,13.6
2022-10-23T13:57:47.603Z,13.7
2022-10-23T13:58:54.709Z,13.7
2022-10-23T14:00:01.381Z,13.7
2022-10-23T14:01:08.076Z,13.6
2022-10-23T14:03:22.693Z,13.6
2022-10-23T14:04:29.839Z,13.6
2022-10-23T14:05:36.420Z,13.6
2022-10-23T14:06:43.506Z,13.6
2022-10-23T14:07:50.568Z,13.5
2022-10-23T14:08:57.733Z,13.5
2022-10-23T14:10:04.930Z,13.5
2022-10-23T14:11:11.455Z,13.5
2022-10-23T14:12:18.526Z,13.5
2022-10-23T14:14:32.694Z,13.6
2022-10-23T14:15:39.845Z,13.6
2022-10-23T14:16:46.393Z,13.6
2022-10-23T14:17:58.082Z,13.6
2022-10-23T14:19:01.652Z,13.6
2022-10-23T14:20:07.866Z,13.6
2022-10-23T14:21:14.869Z,13.6
2022-10-23T14:22:21.402Z,13.5
2022-10-23T14:23:28.420Z,13.5
2022-10-23T14:24:35.649Z,13.5
2022-10-23T14:25:42.691Z,13.5
2022-10-23T14:30:10.643Z,13.4
2022-10-23T14:31:17.615Z,13.4
2022-10-23T14:32:24.398Z,13.4
2022-10-23T14:33:31.430Z,13.4
2022-10-23T14:34:38.557Z,13.4
2022-10-23T14:35:45.538Z,13.4
2022-10-23T14:37:07.323Z,13.4
2022-10-23T14:37:59.381Z,13.4
2022-10-23T14:39:06.475Z,13.3
2022-10-23T14:40:13.410Z,13.3
2022-10-23T14:41:20.748Z,13.3
2022-10-23T14:42:33.056Z,13.3
2022-10-23T14:43:34.337Z,13.2
2022-10-23T14:44:41.470Z,13.2
2022-10-23T14:45:48.578Z,13.2
2022-10-23T14:46:55.686Z,13.1
2022-10-23T14:48:03.841Z,13.1
2022-10-23T14:49:09.355Z,13.1
2022-10-23T14:50:16.371Z,13
2022-10-23T14:51:23.559Z,13
2022-10-23T14:52:30.653Z,13
2022-10-23T14:53:37.732Z,13
2022-10-23T14:54:44.387Z,12.9
2022-10-23T14:55:51.459Z,12.9
2022-10-23T14:58:05.573Z,12.9
2022-10-23T14:59:12.725Z,12.9
2022-10-23T15:00:19.384Z,12.9
2022-10-23T15:01:26.513Z,12.9
2022-10-23T15:02:33.447Z,12.9
2022-10-23T15:03:40.704Z,12.9
2022-10-23T15:04:47.790Z,12.9
2022-10-23T15:07:01.358Z,12.9
2022-10-23T15:09:15.778Z,12.9
2022-10-23T15:10:22.696Z,12.9
2022-10-23T15:11:29.389Z,12.9
2022-10-23T15:12:36.936Z,12.9
2022-10-23T15:13:43.565Z,12.9
2022-10-23T15:14:50.615Z,13
2022-10-23T15:15:57.776Z,13
2022-10-23T15:17:04.382Z,13
2022-10-23T15:18:11.478Z,13
2022-10-23T15:19:19.022Z,13
2022-10-23T15:20:25.807Z,13
2022-10-23T15:21:32.264Z,13
2022-10-23T15:22:39.470Z,12.9
2022-10-23T15:23:46.471Z,13
2022-10-23T15:26:00.580Z,12.9
2022-10-23T15:27:07.210Z,12.9
2022-10-23T15:28:14.478Z,12.9
2022-10-23T15:29:21.479Z,12.9
2022-10-23T15:30:28.488Z,12.9
2022-10-23T15:31:35.732Z,12.9
2022-10-23T15:32:42.260Z,12.9
2022-10-23T15:33:49.432Z,12.9
2022-10-23T15:34:56.431Z,12.9
2022-10-23T15:36:03.576Z,12.9
2022-10-23T15:37:10.683Z,12.9
2022-10-23T15:38:17.442Z,12.9
2022-10-23T15:39:24.452Z,12.8
2022-10-23T15:40:31.401Z,12.9
2022-10-23T15:42:46.921Z,12.9
2022-10-23T15:43:52.327Z,12.8
2022-10-23T15:44:59.301Z,12.8
2022-10-23T15:46:06.553Z,12.8
2022-10-23T15:47:13.705Z,12.8
2022-10-23T15:48:20.620Z,12.7
2022-10-23T15:50:34.504Z,12.7
2022-10-23T15:51:41.611Z,12.7
2022-10-23T15:53:55.655Z,12.7
2022-10-23T15:55:02.327Z,12.6
2022-10-23T15:56:09.409Z,12.6
2022-10-23T15:57:16.569Z,12.6
2022-10-23T15:58:23.676Z,12.6
2022-10-23T15:59:30.729Z,12.6
2022-10-23T16:00:37.353Z,12.6
2022-10-23T16:01:44.580Z,12.5
2022-10-23T16:02:51.432Z,12.5
2022-10-23T16:03:58.563Z,12.5
2022-10-23T16:05:05.668Z,12.4
2022-10-23T16:06:12.290Z,12.4